Time;durP1;ratioP1;P1;durP2;ratioP2;P2;SDS_P1;SDS_P2;PMS_P1;PMS_P2;Temp;Humidity;BMP_temperature;BMP_pressure;BME280_temperature;BME280_humidity;BME280_pressure;Samples;Min_cycle;Max_cycle;Signal;HPM_P1;HPM_P2
2024/01/15 00:02:00;;;;;;;52.63;19.20;;;-3.30;99.90;;;;;;4921527;29;20129;-85
2024/01/15 00:04:26;;;;;;;55.28;19.65;;;-3.40;99.90;;;;;;4932386;29;20031;-86
2024/01/15 00:06:51;;;;;;;48.50;18.58;;;-3.50;99.90;;;;;;4952966;28;20098;-85
2024/01/15 00:09:17;;;;;;;49.65;18.73;;;-3.60;99.90;;;;;;4960278;28;20048;-86
2024/01/15 00:11:43;;;;;;;52.03;18.10;;;-3.60;99.90;;;;;;4937314;29;20050;-86
2024/01/15 00:14:09;;;;;;;48.30;19.45;;;-3.70;99.90;;;;;;4949501;29;20031;-86
2024/01/15 00:16:35;;;;;;;55.90;18.17;;;-3.60;99.90;;;;;;4931534;28;20038;-85
2024/01/15 00:19:01;;;;;;;50.92;17.40;;;-3.60;99.90;;;;;;4911256;29;20039;-86
2024/01/15 00:21:27;;;;;;;48.05;18.02;;;-3.60;99.90;;;;;;4936984;29;20121;-86
2024/01/15 00:23:53;;;;;;;53.10;19.33;;;-3.60;99.90;;;;;;4944413;28;20134;-86
2024/01/15 00:26:19;;;;;;;46.15;17.42;;;-3.70;99.90;;;;;;4921668;29;20066;-85
2024/01/15 00:28:45;;;;;;;52.55;18.98;;;-3.70;99.90;;;;;;4973124;28;20031;-86
2024/01/15 00:31:17;;;;;;;52.47;18.65;;;-3.70;99.90;;;;;;4961507;28;20031;-85
2024/01/15 00:33:46;;;;;;;51.05;18.00;;;-3.70;99.90;;;;;;4931960;29;20062;-86
2024/01/15 00:36:14;;;;;;;55.75;19.65;;;-3.80;99.90;;;;;;4922496;29;20035;-86
2024/01/15 00:38:40;;;;;;;54.78;18.60;;;-3.80;99.90;;;;;;4922188;29;20039;-86
2024/01/15 00:41:06;;;;;;;59.28;19.55;;;-3.70;99.90;;;;;;4949836;29;20097;-85
2024/01/15 00:43:32;;;;;;;47.10;17.33;;;-3.80;99.90;;;;;;4952744;28;20083;-86
2024/01/15 00:45:58;;;;;;;56.88;18.90;;;-3.90;99.90;;;;;;4936863;29;20137;-85
2024/01/15 00:48:23;;;;;;;57.28;18.95;;;-3.80;99.90;;;;;;4924107;29;20027;-85
2024/01/15 00:50:49;;;;;;;55.97;19.67;;;-3.90;99.90;;;;;;4961294;28;20507;-85
2024/01/15 00:53:15;;;;;;;55.97;18.67;;;-3.90;99.90;;;;;;4953714;29;20034;-85
2024/01/15 00:55:40;;;;;;;63.33;20.35;;;-3.80;99.90;;;;;;4953285;29;20058;-86
2024/01/15 00:58:06;;;;;;;55.67;20.80;;;-3.80;99.90;;;;;;4959470;28;20089;-86
2024/01/15 01:00:32;;;;;;;61.05;20.48;;;-3.80;99.90;;;;;;4956347;28;20027;-85
2024/01/15 01:02:58;;;;;;;55.13;19.58;;;-3.80;99.90;;;;;;4952815;29;20074;-85
2024/01/15 01:05:23;;;;;;;65.55;20.02;;;-3.80;99.90;;;;;;4955296;28;20042;-85
2024/01/15 01:07:49;;;;;;;64.03;19.63;;;-3.90;99.90;;;;;;4910383;28;20041;-85
2024/01/15 01:10:15;;;;;;;62.28;20.40;;;-3.90;99.90;;;;;;4955470;28;20720;-86
2024/01/15 01:12:41;;;;;;;66.53;21.23;;;-3.90;99.90;;;;;;4954850;28;20035;-86
2024/01/15 01:15:06;;;;;;;57.17;19.15;;;-3.90;99.90;;;;;;4936641;29;20345;-87
2024/01/15 01:17:32;;;;;;;62.35;19.98;;;-3.90;99.90;;;;;;4936529;29;20043;-86
2024/01/15 01:19:58;;;;;;;65.10;19.85;;;-3.90;99.90;;;;;;4927256;29;20031;-86
2024/01/15 01:22:24;;;;;;;65.25;19.15;;;-3.90;99.90;;;;;;4944386;29;20096;-85
2024/01/15 01:24:50;;;;;;;65.75;20.45;;;-3.90;99.90;;;;;;4937611;29;20118;-86
2024/01/15 01:27:15;;;;;;;63.88;20.05;;;-3.90;99.90;;;;;;4940371;29;20034;-86
2024/01/15 01:29:41;;;;;;;63.53;20.35;;;-3.90;99.90;;;;;;4957083;29;20031;-85
2024/01/15 01:32:07;;;;;;;60.67;19.05;;;-3.90;99.90;;;;;;4940019;29;20086;-86
2024/01/15 01:34:39;;;;;;;55.88;17.50;;;-4.00;99.90;;;;;;4939520;29;20031;-86
2024/01/15 01:37:05;;;;;;;63.47;19.08;;;-4.00;99.90;;;;;;4949738;29;20503;-86
2024/01/15 01:39:31;;;;;;;54.83;18.77;;;-3.90;99.90;;;;;;4939570;29;20023;-87
2024/01/15 01:41:56;;;;;;;54.08;16.98;;;-3.90;99.90;;;;;;4924359;29;20034;-86
2024/01/15 01:44:28;;;;;;;52.53;17.63;;;-3.90;99.90;;;;;;4939522;29;20420;-85
2024/01/15 01:46:54;;;;;;;53.08;17.35;;;-3.80;99.90;;;;;;4947277;28;20544;-86
2024/01/15 01:49:20;;;;;;;51.00;15.82;;;-3.80;99.90;;;;;;4941956;28;20063;-85
2024/01/15 01:51:47;;;;;;;54.25;16.83;;;-3.80;99.90;;;;;;4957244;28;20027;-87
2024/01/15 01:54:13;;;;;;;48.63;15.32;;;-3.80;99.90;;;;;;4939422;29;20035;-85
2024/01/15 01:56:41;;;;;;;52.10;17.27;;;-3.80;99.90;;;;;;4955036;28;20023;-85
2024/01/15 01:59:09;;;;;;;51.42;18.05;;;-3.80;99.90;;;;;;4944236;29;20708;-85
2024/01/15 02:01:36;;;;;;;49.35;16.73;;;-3.70;99.90;;;;;;4949594;28;20081;-85
2024/01/15 02:04:02;;;;;;;49.55;17.20;;;-3.70;99.90;;;;;;4946440;28;20015;-86
2024/01/15 02:06:28;;;;;;;51.83;17.15;;;-3.70;99.90;;;;;;4945792;28;20510;-86
2024/01/15 02:08:55;;;;;;;37.35;14.30;;;-3.70;99.90;;;;;;4963318;28;20023;-86
2024/01/15 02:11:21;;;;;;;43.88;15.85;;;-3.70;99.90;;;;;;4946284;28;20491;-85
2024/01/15 02:13:47;;;;;;;55.47;16.42;;;-3.70;99.90;;;;;;4940206;28;20081;-86
2024/01/15 02:16:13;;;;;;;53.97;16.75;;;-3.60;99.90;;;;;;4938471;29;20039;-86
2024/01/15 02:18:46;;;;;;;44.63;15.48;;;-3.60;99.90;;;;;;4956092;28;20038;-86
2024/01/15 02:21:12;;;;;;;42.53;14.63;;;-3.70;99.90;;;;;;4941169;29;20114;-86
2024/01/15 02:23:39;;;;;;;47.80;15.45;;;-3.80;99.90;;;;;;4938284;29;20428;-87
2024/01/15 02:26:05;;;;;;;40.38;14.00;;;-3.80;99.90;;;;;;4943963;28;20036;-86
2024/01/15 02:28:32;;;;;;;44.65;15.00;;;-3.80;99.90;;;;;;4921963;28;20047;-86
2024/01/15 02:30:58;;;;;;;36.28;13.50;;;-3.80;99.90;;;;;;4941135;28;20046;-86
2024/01/15 02:33:23;;;;;;;43.42;15.00;;;-3.80;99.90;;;;;;4940292;29;20031;-85
2024/01/15 02:35:52;;;;;;;44.42;14.38;;;-3.80;99.90;;;;;;4957388;28;20031;-86
2024/01/15 02:38:18;;;;;;;47.22;15.65;;;-3.80;99.90;;;;;;4954963;28;20492;-85
2024/01/15 02:40:44;;;;;;;49.72;15.68;;;-3.90;99.90;;;;;;4926405;29;20028;-86
2024/01/15 02:43:11;;;;;;;42.25;14.13;;;-3.80;99.90;;;;;;4948306;28;20523;-86
2024/01/15 02:45:37;;;;;;;42.83;14.38;;;-3.80;99.90;;;;;;4945732;29;20035;-87
2024/01/15 02:48:03;;;;;;;45.17;15.70;;;-3.80;99.90;;;;;;4960690;28;20024;-86
2024/01/15 02:50:28;;;;;;;42.35;15.57;;;-3.80;99.90;;;;;;4956427;28;20464;-86
2024/01/15 02:52:54;;;;;;;38.20;14.65;;;-3.80;99.90;;;;;;4925600;29;20039;-86
2024/01/15 02:55:20;;;;;;;45.58;15.23;;;-3.80;99.90;;;;;;4939859;29;20038;-85
2024/01/15 02:57:45;;;;;;;45.25;14.82;;;-3.70;99.90;;;;;;4938411;29;20055;-85
2024/01/15 03:00:12;;;;;;;44.38;15.65;;;-3.70;99.90;;;;;;4938946;29;20107;-85
2024/01/15 03:02:44;;;;;;;49.03;16.55;;;-3.70;99.90;;;;;;4950800;29;20035;-86
2024/01/15 03:05:10;;;;;;;44.88;15.57;;;-3.80;99.90;;;;;;4955535;29;20059;-85
2024/01/15 03:07:36;;;;;;;48.25;14.57;;;-3.70;99.90;;;;;;4964416;28;20047;-86
2024/01/15 03:10:02;;;;;;;51.90;16.75;;;-3.70;99.90;;;;;;4944355;29;20032;-86
2024/01/15 03:12:28;;;;;;;44.55;15.93;;;-3.80;99.90;;;;;;4943601;29;20035;-87
2024/01/15 03:14:54;;;;;;;44.28;15.95;;;-3.80;99.90;;;;;;4947601;28;20137;-86
2024/01/15 03:17:19;;;;;;;44.90;15.70;;;-3.80;99.90;;;;;;4942602;29;20034;-85
2024/01/15 03:19:45;;;;;;;42.97;15.40;;;-3.70;99.90;;;;;;4945081;29;20028;-85
2024/01/15 03:22:11;;;;;;;46.80;15.77;;;-3.80;99.90;;;;;;4908238;29;20023;-85
2024/01/15 03:24:37;;;;;;;42.70;15.77;;;-3.80;99.90;;;;;;4920631;29;20714;-85
2024/01/15 03:27:03;;;;;;;44.08;14.80;;;-3.80;99.90;;;;;;4955146;28;20035;-85
2024/01/15 03:29:28;;;;;;;48.45;15.85;;;-3.80;99.90;;;;;;4939038;29;20396;-86
2024/01/15 03:31:54;;;;;;;43.30;15.38;;;-3.80;99.90;;;;;;4956982;28;20042;-86
2024/01/15 03:34:20;;;;;;;40.33;13.85;;;-3.80;99.90;;;;;;4949225;28;20034;-86
2024/01/15 03:36:46;;;;;;;44.60;16.90;;;-3.80;99.90;;;;;;4942971;29;20036;-87
2024/01/15 03:39:12;;;;;;;46.53;17.13;;;-3.80;99.90;;;;;;4935628;29;20032;-85
2024/01/15 03:41:40;;;;;;;41.88;14.30;;;-3.80;99.90;;;;;;4951272;28;20074;-85
2024/01/15 03:44:06;;;;;;;42.10;15.45;;;-3.80;99.90;;;;;;4948712;29;20483;-87
2024/01/15 03:46:32;;;;;;;44.13;14.32;;;-3.70;99.90;;;;;;4954309;29;20063;-85
2024/01/15 03:48:58;;;;;;;40.58;15.93;;;-3.70;99.90;;;;;;4935570;29;20051;-86
2024/01/15 03:51:24;;;;;;;44.08;15.18;;;-3.80;99.90;;;;;;4942841;29;20360;-86
2024/01/15 03:53:50;;;;;;;44.00;15.18;;;-3.80;99.90;;;;;;4946713;28;20069;-87
2024/01/15 03:56:15;;;;;;;45.63;16.10;;;-3.80;99.90;;;;;;4931184;29;20062;-86
2024/01/15 03:58:41;;;;;;;44.05;14.20;;;-3.70;99.90;;;;;;4938559;29;20456;-87
2024/01/15 04:01:10;;;;;;;38.88;13.75;;;-3.70;99.90;;;;;;4941272;29;20423;-85
2024/01/15 04:03:37;;;;;;;44.08;13.93;;;-3.80;99.90;;;;;;4950019;28;20415;-86
2024/01/15 04:06:04;;;;;;;38.10;13.40;;;-3.70;99.90;;;;;;4945111;28;20039;-85
2024/01/15 04:08:30;;;;;;;42.65;14.35;;;-3.70;99.90;;;;;;4945027;28;20039;-86
2024/01/15 04:10:56;;;;;;;43.20;15.13;;;-3.60;99.90;;;;;;4937801;29;20059;-86
2024/01/15 04:13:22;;;;;;;39.90;12.88;;;-3.60;99.90;;;;;;4947954;28;20058;-86
2024/01/15 04:15:48;;;;;;;41.28;14.70;;;-3.70;99.90;;;;;;4953982;28;20031;-86
2024/01/15 04:18:15;;;;;;;46.55;15.20;;;-3.70;99.90;;;;;;4936877;29;20031;-86
2024/01/15 04:20:41;;;;;;;36.97;13.77;;;-3.60;99.90;;;;;;4941874;29;20042;-87
2024/01/15 04:23:07;;;;;;;36.75;13.77;;;-3.70;99.90;;;;;;4942016;29;20019;-86
2024/01/15 04:25:33;;;;;;;38.42;13.27;;;-3.60;99.90;;;;;;4939765;29;20040;-87
2024/01/15 04:27:59;;;;;;;40.40;13.45;;;-3.60;99.90;;;;;;4967091;28;20079;-87
2024/01/15 04:30:24;;;;;;;41.22;13.25;;;-3.50;99.90;;;;;;4930011;29;20035;-86
2024/01/15 04:32:50;;;;;;;32.53;12.25;;;-3.60;99.90;;;;;;4921151;29;20467;-85
2024/01/15 04:35:16;;;;;;;34.10;13.13;;;-3.50;99.90;;;;;;4948273;29;20040;-85
2024/01/15 04:37:42;;;;;;;34.08;13.98;;;-3.50;99.90;;;;;;4936940;29;20598;-85
2024/01/15 04:40:13;;;;;;;37.15;13.57;;;-3.50;99.90;;;;;;4950783;28;20089;-85
2024/01/15 04:42:49;;;;;;;37.13;13.73;;;-3.50;99.90;;;;;;4938952;29;20035;-86
2024/01/15 04:45:14;;;;;;;;;;;-3.50;99.90;;;;;;4950902;28;20037;-86
2024/01/15 04:47:40;;;;;;;36.05;13.23;;;-3.50;99.90;;;;;;4946477;28;20286;-85
2024/01/15 04:50:06;;;;;;;38.10;13.60;;;-3.40;99.90;;;;;;4953767;29;20036;-85
2024/01/15 04:52:32;;;;;;;37.83;13.25;;;-3.40;99.90;;;;;;4938233;29;20118;-85
2024/01/15 04:54:58;;;;;;;37.67;12.98;;;-3.40;99.90;;;;;;4936009;29;20476;-86
2024/01/15 04:57:23;;;;;;;36.40;13.30;;;-3.40;99.90;;;;;;4943943;28;20034;-87
2024/01/15 04:59:49;;;;;;;35.55;12.98;;;-3.30;99.90;;;;;;4938382;29;20027;-85
2024/01/15 05:02:15;;;;;;;35.55;14.18;;;-3.30;99.90;;;;;;4940868;29;20122;-86
2024/01/15 05:04:41;;;;;;;34.85;12.68;;;-3.30;99.90;;;;;;4940773;29;20420;-86
2024/01/15 05:07:08;;;;;;;33.30;12.77;;;-3.30;99.90;;;;;;4972862;28;20050;-87
2024/01/15 05:09:34;;;;;;;35.28;12.90;;;-3.30;99.90;;;;;;4960382;28;20039;-86
2024/01/15 05:12:32;;;;;;;35.95;12.38;;;-3.20;99.90;;;;;;4927063;29;20047;-86
2024/01/15 05:18:44;;;;;;;36.30;13.75;;;-3.20;99.90;;;;;;4959677;28;20038;-88
2024/01/15 05:21:11;;;;;;;34.22;13.70;;;-3.30;99.90;;;;;;4948520;28;20125;-85
2024/01/15 05:23:37;;;;;;;39.50;13.82;;;-3.30;99.90;;;;;;4942501;29;20079;-86
2024/01/15 05:26:02;;;;;;;34.90;12.35;;;-3.30;99.90;;;;;;4939778;29;20039;-86
2024/01/15 05:28:29;;;;;;;33.83;13.10;;;-3.20;99.90;;;;;;4947599;28;20113;-86
2024/01/15 05:30:55;;;;;;;33.90;13.50;;;-3.20;99.90;;;;;;4931534;29;20038;-86
2024/01/15 05:33:24;;;;;;;33.58;12.38;;;-3.20;99.90;;;;;;4940922;29;20045;-85
2024/01/15 05:35:50;;;;;;;35.92;12.93;;;-3.20;99.90;;;;;;4940945;28;20019;-87
2024/01/15 05:38:17;;;;;;;29.30;12.23;;;-3.20;99.90;;;;;;4967257;28;20075;-87
2024/01/15 05:40:42;;;;;;;30.42;11.98;;;-3.20;99.90;;;;;;4941838;28;20046;-87
2024/01/15 05:43:08;;;;;;;35.47;12.77;;;-3.10;99.90;;;;;;4961073;28;20035;-87
2024/01/15 05:45:38;;;;;;;31.17;12.82;;;-3.10;99.90;;;;;;4952461;28;20031;-86
2024/01/15 05:48:04;;;;;;;28.13;11.30;;;-3.10;99.90;;;;;;4940570;29;20115;-86
2024/01/15 05:50:30;;;;;;;35.47;11.98;;;-3.10;99.90;;;;;;4967496;28;20107;-87
2024/01/15 05:52:56;;;;;;;29.52;11.85;;;-3.00;99.90;;;;;;4940381;29;20046;-86
2024/01/15 05:55:22;;;;;;;27.30;10.73;;;-3.00;99.90;;;;;;4948011;29;20019;-87
2024/01/15 05:57:51;;;;;;;26.88;11.55;;;-3.00;99.90;;;;;;4959908;28;20035;-88
2024/01/15 06:00:20;;;;;;;29.73;12.10;;;-3.00;99.90;;;;;;4946431;28;20041;-87
2024/01/15 06:02:46;;;;;;;34.38;11.00;;;-3.00;99.90;;;;;;4942845;28;20400;-89
2024/01/15 06:05:11;;;;;;;34.92;11.60;;;-3.00;99.90;;;;;;4931919;28;20030;-88
2024/01/15 06:07:37;;;;;;;30.52;10.82;;;-3.00;99.90;;;;;;4966970;28;20145;-88
2024/01/15 06:10:04;;;;;;;30.85;11.35;;;-3.00;99.90;;;;;;4941245;28;20448;-88
2024/01/15 06:12:32;;;;;;;28.60;11.30;;;-3.00;99.90;;;;;;4926287;28;20035;-88
2024/01/15 06:14:58;;;;;;;27.60;10.70;;;-3.00;99.90;;;;;;4952553;28;20455;-88
2024/01/15 06:17:23;;;;;;;29.30;10.85;;;-3.00;99.90;;;;;;4938966;29;20043;-88
2024/01/15 06:19:49;;;;;;;31.27;11.70;;;-3.00;99.90;;;;;;4944471;28;20023;-88
2024/01/15 06:22:15;;;;;;;30.52;12.27;;;-3.00;99.90;;;;;;4929821;28;20450;-88
2024/01/15 06:24:41;;;;;;;29.17;11.45;;;-3.00;99.90;;;;;;4928068;28;20067;-89
2024/01/15 06:27:07;;;;;;;28.08;10.40;;;-3.00;99.90;;;;;;4949114;28;20081;-89
2024/01/15 06:29:33;;;;;;;27.65;10.35;;;-3.00;99.90;;;;;;4936556;28;20035;-88
2024/01/15 06:31:58;;;;;;;30.15;12.13;;;-3.00;99.90;;;;;;4910007;29;20467;-88
2024/01/15 06:34:43;;;;;;;30.00;11.60;;;-2.90;99.90;;;;;;4950092;28;20478;-89
2024/01/15 06:37:08;;;;;;;25.55;11.10;;;-3.00;99.90;;;;;;4920349;28;20030;-88
2024/01/15 06:39:34;;;;;;;30.75;11.10;;;-3.00;99.90;;;;;;4930399;29;20031;-88
2024/01/15 06:42:19;;;;;;;26.25;11.00;;;-3.00;99.90;;;;;;4943313;29;20118;-88
2024/01/15 06:44:44;;;;;;;26.58;10.63;;;-3.00;99.90;;;;;;4914076;28;20499;-88
2024/01/15 06:47:10;;;;;;;27.42;9.63;;;-3.00;99.90;;;;;;4956216;28;20046;-89
2024/01/15 06:49:36;;;;;;;27.58;10.75;;;-3.00;99.90;;;;;;4929515;29;20427;-89
2024/01/15 06:52:02;;;;;;;28.08;10.48;;;-3.00;99.90;;;;;;4929739;29;20094;-89
2024/01/15 06:54:28;;;;;;;27.52;11.40;;;-3.00;99.90;;;;;;4927820;29;20514;-88
2024/01/15 06:56:53;;;;;;;29.33;11.50;;;-3.00;99.90;;;;;;4911427;28;20058;-88
2024/01/15 06:59:19;;;;;;;29.83;11.60;;;-2.90;99.90;;;;;;4924771;29;20506;-89
2024/01/15 07:01:45;;;;;;;26.58;10.40;;;-2.90;99.90;;;;;;4959103;28;20144;-88
2024/01/15 07:04:11;;;;;;;30.48;11.70;;;-3.00;99.90;;;;;;4962296;28;20062;-88
2024/01/15 07:06:37;;;;;;;28.80;11.48;;;-3.00;99.90;;;;;;4914489;28;20042;-88
2024/01/15 07:09:03;;;;;;;28.27;10.75;;;-3.00;99.90;;;;;;4958066;28;20055;-89
2024/01/15 07:11:28;;;;;;;26.38;10.82;;;-2.90;99.90;;;;;;4925450;29;20032;-89
2024/01/15 07:13:54;;;;;;;28.80;11.77;;;-2.90;99.90;;;;;;4942567;28;20027;-89
2024/01/15 07:16:20;;;;;;;26.67;11.93;;;-2.90;99.90;;;;;;4929478;29;20035;-90
2024/01/15 07:18:46;;;;;;;30.13;11.55;;;-2.90;99.90;;;;;;4931977;28;20042;-89
2024/01/15 07:21:11;;;;;;;28.33;11.43;;;-2.90;99.90;;;;;;4930557;28;20031;-88
2024/01/15 07:23:37;;;;;;;27.92;12.02;;;-2.90;99.90;;;;;;4944974;28;20380;-89
2024/01/15 07:26:05;;;;;;;29.92;12.20;;;-2.90;99.90;;;;;;4924905;28;20055;-89
2024/01/15 07:28:30;;;;;;;23.75;11.05;;;-2.80;99.90;;;;;;4940632;29;20063;-89
2024/01/15 07:30:57;;;;;;;26.25;10.35;;;-2.80;99.90;;;;;;4917552;28;20454;-88
2024/01/15 07:33:22;;;;;;;26.05;11.25;;;-2.80;99.90;;;;;;4943607;29;20034;-89
2024/01/15 07:35:48;;;;;;;32.45;12.50;;;-2.70;99.90;;;;;;4924523;29;20126;-89
2024/01/15 07:38:14;;;;;;;27.40;11.50;;;-2.70;99.90;;;;;;4910053;29;20480;-90
2024/01/15 07:40:39;;;;;;;28.33;11.38;;;-2.80;99.90;;;;;;4921953;28;20403;-90
2024/01/15 07:43:05;;;;;;;28.45;11.20;;;-2.70;99.90;;;;;;4941030;28;20055;-89
2024/01/15 07:45:31;;;;;;;25.75;10.52;;;-2.70;99.90;;;;;;4934979;28;20042;-89
2024/01/15 07:47:57;;;;;;;31.15;12.10;;;-2.70;99.90;;;;;;4945405;28;20130;-88
2024/01/15 07:50:23;;;;;;;28.40;11.77;;;-2.70;99.90;;;;;;4954021;28;20027;-88
2024/01/15 07:52:48;;;;;;;28.08;11.43;;;-2.60;99.90;;;;;;4927078;29;20488;-88
2024/01/15 07:55:14;;;;;;;29.83;11.70;;;-2.70;99.90;;;;;;4917198;29;20039;-88
2024/01/15 07:57:40;;;;;;;29.50;11.20;;;-2.60;99.90;;;;;;4953257;28;20042;-89
2024/01/15 08:00:06;;;;;;;28.38;12.27;;;-2.70;99.90;;;;;;4932246;28;20041;-89
2024/01/15 08:02:32;;;;;;;23.25;10.35;;;-2.60;99.90;;;;;;4943604;28;20051;-89
2024/01/15 08:05:01;;;;;;;28.33;11.68;;;-2.60;99.90;;;;;;4921744;29;20090;-89
2024/01/15 08:07:27;;;;;;;28.08;11.32;;;-2.60;99.90;;;;;;4955147;28;20134;-88
2024/01/15 08:09:53;;;;;;;27.70;11.02;;;-2.60;99.90;;;;;;4930995;28;20498;-88
2024/01/15 08:12:19;;;;;;;28.73;11.20;;;-2.60;99.90;;;;;;4929432;28;20030;-89
2024/01/15 08:14:45;;;;;;;26.25;10.05;;;-2.60;99.90;;;;;;4955096;28;20039;-89
2024/01/15 08:17:11;;;;;;;30.17;11.48;;;-2.50;99.90;;;;;;4925859;28;20058;-89
2024/01/15 08:19:38;;;;;;;29.20;11.48;;;-2.50;99.90;;;;;;4927346;28;20056;-89
2024/01/15 08:22:04;;;;;;;27.27;11.80;;;-2.50;99.90;;;;;;4923846;29;20035;-88
2024/01/15 08:24:31;;;;;;;30.65;12.00;;;-2.50;99.90;;;;;;4935603;29;20035;-87
2024/01/15 08:26:57;;;;;;;24.88;10.82;;;-2.50;99.90;;;;;;4922401;28;20046;-87
2024/01/15 08:29:24;;;;;;;25.35;11.27;;;-2.50;99.90;;;;;;4932749;29;20043;-90
2024/01/15 08:31:50;;;;;;;23.20;10.32;;;-2.50;99.90;;;;;;4943361;28;20051;-90
2024/01/15 08:34:16;;;;;;;25.40;10.77;;;-2.40;99.90;;;;;;4961285;28;20027;-89
2024/01/15 08:36:42;;;;;;;24.02;10.32;;;-2.40;99.90;;;;;;4940477;28;20123;-88
2024/01/15 08:39:08;;;;;;;26.67;10.77;;;-2.40;99.90;;;;;;4925206;28;20487;-89
2024/01/15 08:41:35;;;;;;;27.40;11.57;;;-2.40;99.90;;;;;;4941705;28;20055;-88
2024/01/15 08:44:01;;;;;;;28.83;12.43;;;-2.40;99.90;;;;;;4941793;29;20031;-87
2024/01/15 08:46:27;;;;;;;27.52;10.85;;;-2.40;99.90;;;;;;4929926;29;20050;-89
2024/01/15 08:48:53;;;;;;;27.98;11.50;;;-2.40;99.90;;;;;;4955016;28;20039;-89
2024/01/15 08:51:19;;;;;;;23.70;11.27;;;-2.30;99.90;;;;;;4942396;28;20028;-86
2024/01/15 08:53:45;;;;;;;26.55;10.48;;;-2.30;99.90;;;;;;4942876;28;20084;-88
2024/01/15 08:56:11;;;;;;;23.90;10.07;;;-2.20;99.90;;;;;;4943703;28;20086;-88
2024/01/15 08:58:37;;;;;;;29.58;12.88;;;-2.30;99.90;;;;;;4922875;28;20066;-90
2024/01/15 09:01:02;;;;;;;30.33;11.43;;;-2.30;99.90;;;;;;4947715;28;20680;-89
2024/01/15 09:03:28;;;;;;;26.55;12.40;;;-2.30;99.90;;;;;;4939104;28;21592;-88
2024/01/15 09:05:54;;;;;;;30.00;11.63;;;-2.30;99.90;;;;;;4927308;28;20039;-88
2024/01/15 09:08:20;;;;;;;28.00;12.32;;;-2.30;99.90;;;;;;4938916;29;20043;-90
2024/01/15 09:10:46;;;;;;;30.98;12.55;;;-2.40;99.90;;;;;;4930178;29;20047;-89
2024/01/15 09:13:12;;;;;;;31.63;13.10;;;-2.40;99.90;;;;;;4928564;28;20484;-88
2024/01/15 09:15:38;;;;;;;27.25;12.35;;;-2.30;99.90;;;;;;4925363;28;20042;-87
2024/01/15 09:18:05;;;;;;;26.67;11.80;;;-2.30;99.90;;;;;;4928412;28;20027;-86
2024/01/15 09:20:30;;;;;;;27.98;11.43;;;-2.30;99.90;;;;;;4942201;29;20407;-88
2024/01/15 09:22:56;;;;;;;29.20;11.95;;;-2.30;99.90;;;;;;4939675;28;20106;-88
2024/01/15 09:25:22;;;;;;;25.40;11.20;;;-2.20;99.90;;;;;;4924109;28;20042;-88
2024/01/15 09:27:48;;;;;;;27.10;9.88;;;-2.20;99.90;;;;;;4936796;28;20126;-87
2024/01/15 09:30:14;;;;;;;26.98;11.77;;;-2.20;99.90;;;;;;4938046;29;20031;-89
2024/01/15 09:32:58;;;;;;;21.47;10.23;;;-2.20;99.90;;;;;;4947169;28;20094;-90
2024/01/15 09:35:24;;;;;;;27.70;11.80;;;-2.10;99.90;;;;;;4929382;29;20557;-89
2024/01/15 09:37:50;;;;;;;22.52;10.75;;;-2.10;99.90;;;;;;4954122;28;20054;-90
2024/01/15 09:40:16;;;;;;;23.42;10.52;;;-2.00;99.90;;;;;;4946367;28;20047;-89
2024/01/15 09:42:43;;;;;;;21.27;9.35;;;-2.00;99.90;;;;;;4956280;28;20047;-88
2024/01/15 09:45:10;;;;;;;28.05;11.63;;;-2.00;99.90;;;;;;4935247;29;20032;-90
2024/01/15 09:47:37;;;;;;;21.15;10.02;;;-2.00;99.90;;;;;;4948909;28;20102;-90
2024/01/15 09:50:03;;;;;;;26.00;10.10;;;-2.00;99.90;;;;;;4923947;29;20085;-87
2024/01/15 09:52:34;;;;;;;18.38;10.18;;;-2.00;99.90;;;;;;4959818;28;20035;-91
2024/01/15 09:55:01;;;;;;;24.20;10.80;;;-2.00;99.90;;;;;;4947028;28;20122;-89
2024/01/15 09:57:27;;;;;;;22.45;9.57;;;-1.90;99.90;;;;;;4939734;29;20265;-88
2024/01/15 09:59:54;;;;;;;25.02;9.98;;;-1.90;99.90;;;;;;4923130;28;20035;-89
2024/01/15 10:02:20;;;;;;;25.42;9.95;;;-1.80;99.90;;;;;;4928296;28;20442;-88
2024/01/15 10:04:46;;;;;;;24.65;10.95;;;-1.80;99.90;;;;;;4940426;28;20039;-90
2024/01/15 10:07:19;;;;;;;24.35;10.27;;;-1.80;99.90;;;;;;4938236;29;20028;-88
2024/01/15 10:09:46;;;;;;;25.40;11.15;;;-1.80;99.90;;;;;;4956812;28;20035;-91
2024/01/15 10:12:12;;;;;;;21.45;9.80;;;-1.80;99.90;;;;;;4960107;28;20050;-90
2024/01/15 10:14:38;;;;;;;23.70;10.05;;;-1.70;99.90;;;;;;4943731;29;20673;-89
2024/01/15 10:17:17;;;;;;;24.42;9.95;;;-1.80;99.90;;;;;;4928723;28;20027;-89
2024/01/15 10:19:45;;;;;;;21.45;8.98;;;-1.70;99.90;;;;;;4936284;28;20547;-88
2024/01/15 10:22:11;;;;;;;23.70;10.88;;;-1.70;99.90;;;;;;4926406;28;20035;-91
2024/01/15 10:24:38;;;;;;;22.88;9.93;;;-1.70;99.90;;;;;;4924212;29;20042;-90
2024/01/15 10:27:11;;;;;;;21.08;9.70;;;-1.70;99.90;;;;;;4938172;28;20954;-90
2024/01/15 10:29:37;;;;;;;22.58;10.38;;;-1.70;99.90;;;;;;4941768;29;20114;-87
2024/01/15 10:32:06;;;;;;;20.63;9.68;;;-1.70;99.90;;;;;;4929897;28;20067;-89
2024/01/15 10:34:32;;;;;;;22.60;10.05;;;-1.70;99.90;;;;;;4917354;29;20514;-89
2024/01/15 10:36:57;;;;;;;19.73;9.02;;;-1.70;99.90;;;;;;4923655;28;20035;-88
2024/01/15 10:39:24;;;;;;;21.73;9.32;;;-1.70;99.90;;;;;;4952481;28;20026;-88
2024/01/15 10:41:51;;;;;;;19.13;9.75;;;-1.70;99.90;;;;;;4937685;28;20059;-88
2024/01/15 10:44:17;;;;;;;19.55;8.70;;;-1.70;99.90;;;;;;4937298;29;20036;-89
2024/01/15 10:46:44;;;;;;;21.42;10.05;;;-1.70;99.90;;;;;;4937781;28;20039;-90
2024/01/15 10:49:11;;;;;;;21.45;9.38;;;-1.60;99.90;;;;;;4943904;29;20091;-89
2024/01/15 10:51:38;;;;;;;17.90;8.75;;;-1.60;99.90;;;;;;4941702;29;20142;-89
2024/01/15 10:54:04;;;;;;;19.48;9.70;;;-1.50;99.90;;;;;;4942077;29;20050;-90
2024/01/15 10:56:33;;;;;;;16.48;9.10;;;-1.50;99.90;;;;;;4925527;28;20432;-88
2024/01/15 10:58:59;;;;;;;18.00;8.68;;;-1.50;99.90;;;;;;4940017;28;20254;-89
2024/01/15 11:01:25;;;;;;;23.15;9.93;;;-1.60;99.90;;;;;;4938460;29;20050;-89
2024/01/15 11:03:51;;;;;;;19.58;9.02;;;-1.50;99.90;;;;;;4936935;28;20655;-89
2024/01/15 11:06:21;;;;;;;21.77;8.57;;;-1.60;99.90;;;;;;4940058;28;20065;-89
2024/01/15 11:08:50;;;;;;;19.02;8.85;;;-1.60;99.90;;;;;;4961913;28;20027;-89
2024/01/15 11:11:17;;;;;;;21.02;8.57;;;-1.60;99.90;;;;;;4926474;29;20126;-90
2024/01/15 11:13:44;;;;;;;22.15;8.80;;;-1.60;99.90;;;;;;4936586;28;20031;-88
2024/01/15 11:16:17;;;;;;;19.75;9.02;;;-1.60;99.90;;;;;;4938762;29;20032;-88
2024/01/15 11:19:02;;;;;;;21.67;9.13;;;-1.60;99.90;;;;;;4942147;28;20492;-87
2024/01/15 11:21:32;;;;;;;23.27;10.00;;;-1.50;99.90;;;;;;4938826;29;20562;-90
2024/01/15 11:24:01;;;;;;;17.48;8.15;;;-1.40;99.90;;;;;;4942458;29;20053;-88
2024/01/15 11:26:35;;;;;;;18.38;8.73;;;-1.40;99.90;;;;;;4951203;28;20072;-88
2024/01/15 11:29:06;;;;;;;17.23;7.80;;;-1.40;99.90;;;;;;4930902;28;20034;-90
2024/01/15 11:31:38;;;;;;;21.38;8.63;;;-1.30;99.90;;;;;;4939102;29;20031;-90
2024/01/15 11:34:05;;;;;;;21.27;10.13;;;-1.30;99.90;;;;;;4957158;28;20657;-88
2024/01/15 11:36:50;;;;;;;21.83;9.85;;;-1.30;99.90;;;;;;4941836;29;20039;-89
2024/01/15 11:39:28;;;;;;;18.90;9.05;;;-1.30;99.90;;;;;;4960754;28;20071;-89
2024/01/15 11:42:03;;;;;;;21.92;9.05;;;-1.30;99.90;;;;;;4931781;28;20118;-89
2024/01/15 11:44:30;;;;;;;20.58;10.25;;;-1.30;99.90;;;;;;4942502;28;20027;-88
2024/01/15 11:47:02;;;;;;;20.88;9.93;;;-1.20;99.90;;;;;;4941351;29;20122;-89
2024/01/15 11:50:05;;;;;;;25.60;11.20;;;-1.10;99.90;;;;;;4928017;28;20046;-90
2024/01/15 11:52:38;;;;;;;23.25;10.20;;;-1.10;99.90;;;;;;4937484;29;20035;-90
2024/01/15 11:55:38;;;;;;;27.90;10.07;;;-1.10;99.90;;;;;;4929545;28;20049;-87
2024/01/15 11:58:11;;;;;;;21.20;10.30;;;-1.10;99.90;;;;;;4933273;28;20055;-89
2024/01/15 12:00:45;;;;;;;21.25;9.65;;;-1.10;99.90;;;;;;4928893;29;20644;-89
2024/01/15 12:03:11;;;;;;;22.95;10.02;;;-1.20;99.90;;;;;;4931229;28;20031;-89
2024/01/15 12:05:38;;;;;;;21.05;10.20;;;-1.20;99.90;;;;;;4942226;28;20038;-92
2024/01/15 12:08:10;;;;;;;25.95;11.02;;;-1.10;99.90;;;;;;4931244;28;20549;-90
2024/01/15 12:10:37;;;;;;;22.63;9.90;;;-1.10;99.90;;;;;;4933395;29;20050;-88
2024/01/15 12:13:14;;;;;;;22.50;9.90;;;-1.10;99.90;;;;;;4924877;29;20126;-88
2024/01/15 12:15:41;;;;;;;20.88;10.63;;;-1.10;99.90;;;;;;4951548;28;20034;-88
2024/01/15 12:18:09;;;;;;;24.85;10.25;;;-1.10;99.90;;;;;;4960231;28;20159;-88
2024/01/15 12:20:34;;;;;;;22.35;10.60;;;-1.10;99.90;;;;;;4921729;29;20046;-89
2024/01/15 12:23:03;;;;;;;22.58;9.98;;;-1.10;99.90;;;;;;4940647;29;20031;-88
2024/01/15 12:25:30;;;;;;;20.70;9.63;;;-1.10;99.90;;;;;;4939395;28;20046;-89
2024/01/15 12:27:56;;;;;;;21.80;9.98;;;-1.10;99.90;;;;;;4918195;29;20076;-90
2024/01/15 12:30:22;;;;;;;22.42;10.38;;;-1.10;99.90;;;;;;4934589;29;20043;-90
2024/01/15 12:32:48;;;;;;;23.58;10.85;;;-1.10;99.90;;;;;;4936973;28;20071;-87